Time,TemperatureF,DewpointF,PressureIn,WindDirection,WindDirectionDegrees,WindSpeedMPH,WindSpeedGustMPH,Humidity,HourlyPrecipIn,Conditions,Clouds,dailyrainin,SoftwareType,DateUTC
2013-06-23 00:01:00,69.4,65.7,30.24,North,0,0.0,-999.0,88,0.00,Sunny,,0.00,Open2300\PHP-WU,2013-06-23 04:01:00,
2013-06-23 00:03:00,69.1,65.3,30.24,North,0,0.0,-999.0,88,0.00,Sunny,,0.00,Open2300\PHP-WU,2013-06-23 04:03:00,
2013-06-23 00:07:00,68.9,65.2,30.24,North,0,0.0,-999.0,88,0.00,Sunny,,0.00,Open2300\PHP-WU,2013-06-23 04:07:00,
2013-06-23 00:09:00,68.9,65.2,30.24,North,0,0.0,-999.0,88,0.00,Sunny,,0.00,Open2300\PHP-WU,2013-06-23 04:09:00,
2013-06-23 00:11:00,68.7,65.0,30.24,North,0,0.0,-999.0,88,0.00,Sunny,,0.00,Open2300\PHP-WU,2013-06-23 04:11:00,
2013-06-23 00:18:00,68.5,64.8,30.24,North,0,0.0,-999.0,88,0.00,Sunny,,0.00,Open2300\PHP-WU,2013-06-23 04:18:00,
2013-06-23 00:24:00,68.5,64.8,30.24,North,0,0.0,-999.0,88,0.00,Sunny,,0.00,Open2300\PHP-WU,2013-06-23 04:24:00,
2013-06-23 00:29:00,68.5,64.8,30.25,North,0,0.0,-999.0,88,0.00,Sunny,,0.00,Open2300\PHP-WU,2013-06-23 04:29:00,
2013-06-23 00:35:00,68.2,64.5,30.25,North,0,0.0,-999.0,88,0.00,Sunny,,0.00,Open2300\PHP-WU,2013-06-23 04:35:00,
2013-06-23 00:41:00,68.2,64.5,30.25,North,0,0.0,-999.0,88,0.00,Sunny,,0.00,Open2300\PHP-WU,2013-06-23 04:41:00,
2013-06-23 00:47:00,68.5,65.1,30.25,North,0,0.0,-999.0,89,0.00,Sunny,,0.00,Open2300\PHP-WU,2013-06-23 04:47:00,
2013-06-23 00:53:00,68.7,65.3,30.25,North,0,0.0,-999.0,89,0.00,Sunny,,0.00,Open2300\PHP-WU,2013-06-23 04:53:00,
2013-06-23 01:01:00,68.7,65.3,30.25,North,0,0.0,-999.0,89,0.00,Sunny,,0.00,Open2300\PHP-WU,2013-06-23 05:01:00,
2013-06-23 01:07:00,68.7,65.3,30.25,North,0,0.0,-999.0,89,0.00,Sunny,,0.00,Open2300\PHP-WU,2013-06-23 05:07:00,
2013-06-23 01:13:00,68.5,65.1,30.25,North,0,0.0,-999.0,89,0.00,Sunny,,0.00,Open2300\PHP-WU,2013-06-23 05:13:00,
2013-06-23 01:19:00,68.5,65.1,30.25,North,0,0.0,-999.0,89,0.00,Sunny,,0.00,Open2300\PHP-WU,2013-06-23 05:19:00,
2013-06-23 01:25:00,68.4,65.0,30.25,North,0,0.0,-999.0,89,0.00,Sunny,,0.00,Open2300\PHP-WU,2013-06-23 05:25:00,
2013-06-23 01:31:00,68.2,64.8,30.25,North,0,0.0,-999.0,89,0.00,Sunny,,0.00,Open2300\PHP-WU,2013-06-23 05:31:00,
2013-06-23 01:37:00,68.2,64.8,30.24,North,0,0.0,-999.0,89,0.00,Sunny,,0.00,Open2300\PHP-WU,2013-06-23 05:37:00,
2013-06-23 01:43:00,68.2,64.8,30.25,North,0,0.0,-999.0,89,0.00,Sunny,,0.00,Open2300\PHP-WU,2013-06-23 05:43:00,
2013-06-23 01:49:00,67.8,64.4,30.25,North,0,0.0,-999.0,89,0.00,Sunny,,0.00,Open2300\PHP-WU,2013-06-23 05:49:00,
2013-06-23 01:55:00,67.8,64.4,30.24,North,0,0.0,-999.0,89,0.00,Sunny,,0.00,Open2300\PHP-WU,2013-06-23 05:55:00,
2013-06-23 02:01:00,67.6,64.3,30.24,North,0,0.0,-999.0,89,0.00,Sunny,,0.00,Open2300\PHP-WU,2013-06-23 06:01:00,
2013-06-23 02:03:00,67.6,64.3,30.24,North,0,0.0,-999.0,89,0.00,Sunny,,0.00,Open2300\PHP-WU,2013-06-23 06:03:00,
2013-06-23 02:09:00,67.6,64.3,30.24,North,0,0.0,-999.0,89,0.00,Sunny,,0.00,Open2300\PHP-WU,2013-06-23 06:09:00,
2013-06-23 02:15:00,67.6,64.3,30.23,North,0,0.0,-999.0,89,0.00,Sunny,,0.00,Open2300\PHP-WU,2013-06-23 06:15:00,
2013-06-23 02:21:00,67.3,63.9,30.23,North,0,0.0,-999.0,89,0.00,Sunny,,0.00,Open2300\PHP-WU,2013-06-23 06:21:00,
2013-06-23 02:27:00,67.3,63.9,30.23,North,0,0.0,-999.0,89,0.00,Sunny,,0.00,Open2300\PHP-WU,2013-06-23 06:27:00,
2013-06-23 02:33:00,67.3,63.9,30.23,North,0,0.0,-999.0,89,0.00,Sunny,,0.00,Open2300\PHP-WU,2013-06-23 06:33:00,
2013-06-23 02:39:00,67.1,63.7,30.23,North,0,0.0,-999.0,89,0.00,Sunny,,0.00,Open2300\PHP-WU,2013-06-23 06:39:00,
2013-06-23 02:45:00,67.3,63.9,30.23,North,0,0.0,-999.0,89,0.00,Sunny,,0.00,Open2300\PHP-WU,2013-06-23 06:45:00,
2013-06-23 02:51:00,66.9,63.5,30.24,North,0,0.0,-999.0,89,0.00,Sunny,,0.00,Open2300\PHP-WU,2013-06-23 06:51:00,
2013-06-23 02:57:00,66.7,63.4,30.24,North,0,0.0,-999.0,89,0.00,Sunny,,0.00,Open2300\PHP-WU,2013-06-23 06:57:00,
2013-06-23 03:03:00,66.7,63.4,30.24,North,0,0.0,-999.0,89,0.00,Sunny,,0.00,Open2300\PHP-WU,2013-06-23 07:03:00,
2013-06-23 03:09:00,66.7,63.4,30.23,North,0,0.0,-999.0,89,0.00,Sunny,,0.00,Open2300\PHP-WU,2013-06-23 07:09:00,
2013-06-23 03:15:00,66.7,63.4,30.23,North,0,0.0,-999.0,89,0.00,Sunny,,0.00,Open2300\PHP-WU,2013-06-23 07:15:00,
2013-06-23 03:21:00,66.9,63.5,30.24,North,0,0.0,-999.0,89,0.00,Sunny,,0.00,Open2300\PHP-WU,2013-06-23 07:21:00,
2013-06-23 03:27:00,66.7,63.4,30.23,North,0,0.0,-999.0,89,0.00,Sunny,,0.00,Open2300\PHP-WU,2013-06-23 07:27:00,
2013-06-23 03:33:00,66.7,63.4,30.23,North,0,0.0,-999.0,89,0.00,Sunny,,0.00,Open2300\PHP-WU,2013-06-23 07:33:00,
2013-06-23 03:39:00,66.6,63.2,30.23,North,0,0.0,-999.0,89,0.00,Sunny,,0.00,Open2300\PHP-WU,2013-06-23 07:39:00,
2013-06-23 03:45:00,66.6,63.2,30.24,North,0,0.0,-999.0,89,0.00,Sunny,,0.00,Open2300\PHP-WU,2013-06-23 07:45:00,
2013-06-23 03:51:00,66.7,63.4,30.24,North,0,0.0,-999.0,89,0.00,Sunny,,0.00,Open2300\PHP-WU,2013-06-23 07:51:00,
2013-06-23 03:57:00,66.6,63.2,30.24,North,0,0.0,-999.0,89,0.00,Sunny,,0.00,Open2300\PHP-WU,2013-06-23 07:57:00,
2013-06-23 04:03:00,66.7,63.4,30.24,North,0,0.0,-999.0,89,0.00,Sunny,,0.00,Open2300\PHP-WU,2013-06-23 08:03:00,
2013-06-23 04:09:00,66.7,63.4,30.24,North,0,0.0,-999.0,89,0.00,Sunny,,0.00,Open2300\PHP-WU,2013-06-23 08:09:00,
2013-06-23 04:15:00,66.6,63.2,30.24,North,0,0.0,-999.0,89,0.00,Sunny,,0.00,Open2300\PHP-WU,2013-06-23 08:15:00,
2013-06-23 04:21:00,66.4,63.0,30.24,North,0,0.0,-999.0,89,0.00,Sunny,,0.00,Open2300\PHP-WU,2013-06-23 08:21:00,
2013-06-23 04:27:00,66.0,62.6,30.24,North,0,0.0,-999.0,89,0.00,Sunny,,0.00,Open2300\PHP-WU,2013-06-23 08:27:00,
2013-06-23 04:33:00,66.0,63.0,30.24,North,0,0.0,-999.0,90,0.00,Sunny,,0.00,Open2300\PHP-WU,2013-06-23 08:33:00,
2013-06-23 04:39:00,66.0,63.0,30.24,North,0,0.0,-999.0,90,0.00,Sunny,,0.00,Open2300\PHP-WU,2013-06-23 08:39:00,
2013-06-23 04:45:00,66.0,63.0,30.24,North,0,0.0,-999.0,90,0.00,Sunny,,0.00,Open2300\PHP-WU,2013-06-23 08:45:00,
2013-06-23 04:51:00,66.0,63.0,30.24,North,0,0.0,-999.0,90,0.00,Sunny,,0.00,Open2300\PHP-WU,2013-06-23 08:51:00,
2013-06-23 04:57:00,66.2,63.1,30.24,North,0,0.0,-999.0,90,0.00,Sunny,,0.00,Open2300\PHP-WU,2013-06-23 08:57:00,
2013-06-23 05:03:00,66.4,63.3,30.24,North,0,0.0,-999.0,90,0.00,Sunny,,0.00,Open2300\PHP-WU,2013-06-23 09:03:00,
2013-06-23 05:09:00,66.2,63.1,30.24,North,0,0.0,-999.0,90,0.00,Sunny,,0.00,Open2300\PHP-WU,2013-06-23 09:09:00,
2013-06-23 05:15:00,66.0,63.0,30.25,North,0,0.0,-999.0,90,0.00,Sunny,,0.00,Open2300\PHP-WU,2013-06-23 09:15:00,
2013-06-23 05:21:00,66.0,63.0,30.25,North,0,0.0,-999.0,90,0.00,Sunny,,0.00,Open2300\PHP-WU,2013-06-23 09:21:00,
2013-06-23 05:27:00,66.0,63.0,30.25,North,0,0.0,-999.0,90,0.00,Sunny,,0.00,Open2300\PHP-WU,2013-06-23 09:27:00,
2013-06-23 05:33:00,66.0,63.0,30.25,North,0,0.0,-999.0,90,0.00,Sunny,,0.00,Open2300\PHP-WU,2013-06-23 09:33:00,
2013-06-23 05:39:00,66.0,63.0,30.25,North,0,0.0,-999.0,90,0.00,Sunny,,0.00,Open2300\PHP-WU,2013-06-23 09:39:00,
2013-06-23 05:45:00,66.0,63.0,30.25,North,0,0.0,-999.0,90,0.00,Sunny,,0.00,Open2300\PHP-WU,2013-06-23 09:45:00,
2013-06-23 05:51:00,66.0,63.0,30.25,North,0,0.0,-999.0,90,0.00,Sunny,,0.00,Open2300\PHP-WU,2013-06-23 09:51:00,
2013-06-23 05:57:00,66.0,63.0,30.25,North,0,0.0,-999.0,90,0.00,Sunny,,0.00,Open2300\PHP-WU,2013-06-23 09:57:00,
2013-06-23 06:03:00,65.8,62.8,30.25,North,0,0.0,-999.0,90,0.00,Sunny,,0.00,Open2300\PHP-WU,2013-06-23 10:03:00,
2013-06-23 06:09:00,66.0,63.0,30.25,North,0,0.0,-999.0,90,0.00,Sunny,,0.00,Open2300\PHP-WU,2013-06-23 10:09:00,
2013-06-23 06:15:00,66.0,63.0,30.25,North,0,0.0,-999.0,90,0.00,Sunny,,0.00,Open2300\PHP-WU,2013-06-23 10:15:00,
2013-06-23 06:21:00,66.0,63.0,30.25,North,0,0.0,-999.0,90,0.00,Sunny,,0.00,Open2300\PHP-WU,2013-06-23 10:21:00,
2013-06-23 06:27:00,66.0,63.0,30.25,North,0,0.0,-999.0,90,0.00,Sunny,,0.00,Open2300\PHP-WU,2013-06-23 10:27:00,
2013-06-23 06:33:00,66.0,63.0,30.25,North,0,0.0,-999.0,90,0.00,Sunny,,0.00,Open2300\PHP-WU,2013-06-23 10:33:00,
2013-06-23 06:39:00,66.0,63.0,30.25,North,0,0.0,-999.0,90,0.00,Sunny,,0.00,Open2300\PHP-WU,2013-06-23 10:39:00,
2013-06-23 06:45:00,66.2,63.1,30.26,North,0,0.0,-999.0,90,0.00,Sunny,,0.00,Open2300\PHP-WU,2013-06-23 10:45:00,
2013-06-23 06:51:00,66.4,63.3,30.26,North,0,0.0,-999.0,90,0.00,Sunny,,0.00,Open2300\PHP-WU,2013-06-23 10:51:00,
2013-06-23 06:57:00,66.7,63.7,30.26,North,0,0.0,-999.0,90,0.00,Sunny,,0.00,Open2300\PHP-WU,2013-06-23 10:57:00,
2013-06-23 07:03:00,66.7,63.7,30.26,North,0,0.0,-999.0,90,0.00,Sunny,,0.00,Open2300\PHP-WU,2013-06-23 11:03:00,
2013-06-23 07:09:00,67.3,64.2,30.26,North,0,0.0,-999.0,90,0.00,Sunny,,0.00,Open2300\PHP-WU,2013-06-23 11:09:00,
2013-06-23 07:15:00,67.6,64.6,30.26,North,0,0.0,-999.0,90,0.00,Sunny,,0.00,Open2300\PHP-WU,2013-06-23 11:15:00,
2013-06-23 07:21:00,67.8,64.8,30.26,North,0,0.0,-999.0,90,0.00,Sunny,,0.00,Open2300\PHP-WU,2013-06-23 11:21:00,
2013-06-23 07:27:00,68.2,65.1,30.26,North,0,0.0,-999.0,90,0.00,Sunny,,0.00,Open2300\PHP-WU,2013-06-23 11:27:00,
2013-06-23 07:34:00,68.5,65.5,30.26,North,0,0.0,-999.0,90,0.00,Sunny,,0.00,Open2300\PHP-WU,2013-06-23 11:34:00,
2013-06-23 07:40:00,69.1,66.0,30.26,North,0,0.0,-999.0,90,0.00,Sunny,,0.00,Open2300\PHP-WU,2013-06-23 11:40:00,
2013-06-23 07:46:00,69.6,66.6,30.26,North,0,0.0,-999.0,90,0.00,Sunny,,0.00,Open2300\PHP-WU,2013-06-23 11:46:00,
2013-06-23 07:52:00,70.3,67.3,30.27,SSE,157,0.0,-999.0,90,0.00,Sunny,,0.00,Open2300\PHP-WU,2013-06-23 11:52:00,
2013-06-23 07:58:00,70.9,67.8,30.27,SSE,157,0.0,-999.0,90,0.00,Sunny,,0.00,Open2300\PHP-WU,2013-06-23 11:58:00,
2013-06-23 08:04:00,70.9,67.8,30.27,SSE,157,0.0,-999.0,90,0.00,Sunny,,0.00,Open2300\PHP-WU,2013-06-23 12:04:00,
2013-06-23 08:10:00,71.4,68.4,30.28,SSE,157,0.0,-999.0,90,0.00,Sunny,,0.00,Open2300\PHP-WU,2013-06-23 12:10:00,
2013-06-23 08:16:00,71.6,68.5,30.28,SSE,157,0.0,-999.0,90,0.00,Sunny,,0.00,Open2300\PHP-WU,2013-06-23 12:16:00,
2013-06-23 08:22:00,72.3,69.3,30.28,SSE,157,0.0,-999.0,90,0.00,Sunny,,0.00,Open2300\PHP-WU,2013-06-23 12:22:00,
2013-06-23 08:28:00,72.5,69.4,30.29,SSE,157,0.0,-999.0,90,0.00,Sunny,,0.00,Open2300\PHP-WU,2013-06-23 12:28:00,
2013-06-23 08:34:00,72.3,69.3,30.29,SSE,157,0.0,-999.0,90,0.00,Sunny,,0.00,Open2300\PHP-WU,2013-06-23 12:34:00,
2013-06-23 08:40:00,72.3,68.9,30.29,SSE,157,0.0,-999.0,89,0.00,Sunny,,0.00,Open2300\PHP-WU,2013-06-23 12:40:00,
2013-06-23 08:46:00,72.7,69.3,30.29,SSE,157,0.0,-999.0,89,0.00,Sunny,,0.00,Open2300\PHP-WU,2013-06-23 12:46:00,
2013-06-23 08:52:00,73.2,69.8,30.30,SSE,157,0.0,-999.0,89,0.00,Sunny,,0.00,Open2300\PHP-WU,2013-06-23 12:52:00,
2013-06-23 08:58:00,75.9,72.2,30.30,SSE,157,0.0,-999.0,88,0.00,Sunny,,0.00,Open2300\PHP-WU,2013-06-23 12:58:00,
2013-06-23 09:04:00,77.5,73.4,30.30,SSE,157,0.0,-999.0,87,0.00,Sunny,,0.00,Open2300\PHP-WU,2013-06-23 13:04:00,
2013-06-23 09:10:00,77.2,72.3,30.30,West,270,0.0,-999.0,85,0.00,Sunny,,0.00,Open2300\PHP-WU,2013-06-23 13:10:00,
2013-06-23 09:16:00,77.2,72.0,30.30,West,270,0.0,-999.0,84,0.00,Sunny,,0.00,Open2300\PHP-WU,2013-06-23 13:16:00,
2013-06-23 09:22:00,77.2,71.6,30.30,NNE,22,0.0,-999.0,83,0.00,Sunny,,0.00,Open2300\PHP-WU,2013-06-23 13:22:00,
2013-06-23 09:28:00,77.5,71.2,30.30,NW,315,0.0,-999.0,81,0.00,Sunny,,0.00,Open2300\PHP-WU,2013-06-23 13:28:00,
2013-06-23 09:34:00,77.9,71.6,30.30,NW,315,0.0,-999.0,81,0.00,Sunny,,0.00,Open2300\PHP-WU,2013-06-23 13:34:00,
2013-06-23 09:40:00,78.4,71.8,30.30,WNW,292,0.0,-999.0,80,0.00,Sunny,,0.00,Open2300\PHP-WU,2013-06-23 13:40:00,
2013-06-23 09:46:00,78.6,71.6,30.30,WNW,292,0.0,-999.0,79,0.00,Sunny,,0.00,Open2300\PHP-WU,2013-06-23 13:46:00,
2013-06-23 09:52:00,79.2,71.7,30.30,WNW,292,0.0,-999.0,78,0.00,Sunny,,0.00,Open2300\PHP-WU,2013-06-23 13:52:00,
2013-06-23 09:58:00,79.9,71.6,30.30,North,0,0.0,-999.0,76,0.00,Sunny,,0.00,Open2300\PHP-WU,2013-06-23 13:58:00,
2013-06-23 10:04:00,80.1,71.8,30.30,West,270,0.0,-999.0,76,0.00,Sunny,,0.00,Open2300\PHP-WU,2013-06-23 14:04:00,
2013-06-23 10:10:00,79.5,71.3,30.30,WNW,292,0.0,-999.0,76,0.00,Sunny,,0.00,Open2300\PHP-WU,2013-06-23 14:10:00,
2013-06-23 10:16:00,79.3,71.5,30.30,WNW,292,0.0,-999.0,77,0.00,Sunny,,0.00,Open2300\PHP-WU,2013-06-23 14:16:00,
2013-06-23 10:22:00,81.0,72.3,30.30,West,270,0.0,-999.0,75,0.00,Sunny,,0.00,Open2300\PHP-WU,2013-06-23 14:22:00,
2013-06-23 10:28:00,82.6,72.2,30.29,North,0,0.0,-999.0,71,0.00,Sunny,,0.00,Open2300\PHP-WU,2013-06-23 14:28:00,
2013-06-23 10:34:00,83.1,72.3,30.29,West,270,0.0,-999.0,70,0.00,Sunny,,0.00,Open2300\PHP-WU,2013-06-23 14:34:00,
2013-06-23 10:40:00,83.1,71.9,30.29,WSW,247,0.0,-999.0,69,0.00,Sunny,,0.00,Open2300\PHP-WU,2013-06-23 14:40:00,
2013-06-23 10:46:00,82.6,71.3,30.30,WNW,292,0.0,-999.0,69,0.00,Sunny,,0.00,Open2300\PHP-WU,2013-06-23 14:46:00,
2013-06-23 10:52:00,81.7,70.5,30.30,WNW,292,0.0,-999.0,69,0.00,Sunny,,0.00,Open2300\PHP-WU,2013-06-23 14:52:00,
2013-06-23 10:58:00,82.0,70.8,30.30,West,270,0.0,-999.0,69,0.00,Sunny,,0.00,Open2300\PHP-WU,2013-06-23 14:58:00,
2013-06-23 11:04:00,82.6,71.3,30.30,West,270,0.0,-999.0,69,0.00,Sunny,,0.00,Open2300\PHP-WU,2013-06-23 15:04:00,
2013-06-23 11:10:00,82.9,71.2,30.30,SW,225,0.0,-999.0,68,0.00,Sunny,,0.00,Open2300\PHP-WU,2013-06-23 15:10:00,
2013-06-23 11:16:00,83.3,71.2,30.30,WSW,247,0.0,-999.0,67,0.00,Sunny,,0.00,Open2300\PHP-WU,2013-06-23 15:16:00,
2013-06-23 11:22:00,84.0,72.3,30.29,WSW,247,0.0,-999.0,68,0.00,Sunny,,0.00,Open2300\PHP-WU,2013-06-23 15:22:00,
2013-06-23 11:27:00,84.9,72.3,30.30,West,270,0.0,-999.0,66,0.00,Sunny,,0.00,Open2300\PHP-WU,2013-06-23 15:27:00,
2013-06-23 11:36:00,84.9,71.4,30.30,WSW,247,0.0,-999.0,64,0.00,Sunny,,0.00,Open2300\PHP-WU,2013-06-23 15:36:00,
2013-06-23 11:41:00,85.8,71.7,30.29,WSW,247,0.0,-999.0,63,0.00,Sunny,,0.00,Open2300\PHP-WU,2013-06-23 15:41:00,
2013-06-23 11:47:00,86.7,72.2,30.29,WSW,247,0.0,-999.0,62,0.00,Sunny,,0.00,Open2300\PHP-WU,2013-06-23 15:47:00,
2013-06-23 11:53:00,85.8,71.3,30.29,ENE,67,0.9,-999.0,62,0.00,Sunny,,0.00,Open2300\PHP-WU,2013-06-23 15:53:00,
2013-06-23 12:00:00,84.7,70.7,30.29,North,0,0.0,-999.0,64,0.00,Sunny,,0.00,Open2300\PHP-WU,2013-06-23 16:00:00,
2013-06-23 12:05:00,83.7,70.2,30.29,North,0,0.0,-999.0,64,0.00,Sunny,,0.00,Open2300\PHP-WU,2013-06-23 16:05:00,
2013-06-23 12:12:00,83.5,70.4,30.29,WNW,292,0.0,-999.0,65,0.00,Sunny,,0.00,Open2300\PHP-WU,2013-06-23 16:12:00,
2013-06-23 12:17:00,83.5,70.4,30.29,WNW,292,0.0,-999.0,65,0.00,Sunny,,0.00,Open2300\PHP-WU,2013-06-23 16:17:00,
2013-06-23 12:23:00,83.3,70.3,30.29,NNE,22,3.4,-999.0,65,0.00,Sunny,,0.00,Open2300\PHP-WU,2013-06-23 16:23:00,
2013-06-23 12:30:00,82.8,70.6,30.28,NNE,22,0.0,-999.0,67,0.00,Sunny,,0.00,Open2300\PHP-WU,2013-06-23 16:30:00,
2013-06-23 12:35:00,82.0,70.4,30.28,NE,45,0.0,-999.0,68,0.00,Sunny,,0.00,Open2300\PHP-WU,2013-06-23 16:35:00,
2013-06-23 12:41:00,81.7,70.5,30.29,NNW,337,0.0,-999.0,69,0.00,Sunny,,0.00,Open2300\PHP-WU,2013-06-23 16:41:00,
2013-06-23 12:47:00,81.7,70.5,30.29,NE,45,0.0,-999.0,69,0.00,Sunny,,0.00,Open2300\PHP-WU,2013-06-23 16:47:00,
2013-06-23 12:53:00,81.5,70.3,30.29,West,270,0.0,-999.0,69,0.00,Sunny,,0.00,Open2300\PHP-WU,2013-06-23 16:53:00,
2013-06-23 12:58:00,80.8,70.5,30.28,West,270,0.0,-999.0,71,0.00,Sunny,,0.00,Open2300\PHP-WU,2013-06-23 16:58:00,
2013-06-23 12:59:00,80.8,70.5,30.28,WSW,247,0.0,-999.0,71,0.00,Sunny,,0.00,Open2300\PHP-WU,2013-06-23 16:59:00,
2013-06-23 13:02:00,80.4,70.2,30.28,WSW,247,0.0,-999.0,71,0.00,Sunny,,0.00,Open2300\PHP-WU,2013-06-23 17:02:00,
2013-06-23 13:03:00,80.2,70.4,30.28,NNW,337,0.0,-999.0,72,0.00,Sunny,,0.00,Open2300\PHP-WU,2013-06-23 17:03:00,
2013-06-23 13:09:00,79.3,70.3,30.28,NNE,22,0.0,-999.0,74,0.00,Sunny,,0.00,Open2300\PHP-WU,2013-06-23 17:09:00,
2013-06-23 13:15:00,80.2,70.8,30.27,WSW,247,0.0,-999.0,73,0.00,Sunny,,0.00,Open2300\PHP-WU,2013-06-23 17:15:00,
2013-06-23 13:21:00,81.3,71.8,30.28,NW,315,0.0,-999.0,73,0.00,Sunny,,0.00,Open2300\PHP-WU,2013-06-23 17:21:00,
2013-06-23 13:27:00,82.0,71.3,30.27,NW,315,0.0,-999.0,70,0.00,Sunny,,0.00,Open2300\PHP-WU,2013-06-23 17:27:00,
2013-06-23 13:33:00,82.9,73.0,30.27,WSW,247,0.0,-999.0,72,0.00,Sunny,,0.00,Open2300\PHP-WU,2013-06-23 17:33:00,
2013-06-23 13:39:00,83.8,72.6,30.27,WSW,247,0.0,-999.0,69,0.00,Sunny,,0.00,Open2300\PHP-WU,2013-06-23 17:39:00,
2013-06-23 13:45:00,84.7,73.0,30.27,WSW,247,0.0,-999.0,68,0.00,Sunny,,0.00,Open2300\PHP-WU,2013-06-23 17:45:00,
2013-06-23 13:51:00,85.5,73.3,30.27,WSW,247,0.0,-999.0,67,0.00,Sunny,,0.00,Open2300\PHP-WU,2013-06-23 17:51:00,
2013-06-23 13:57:00,86.5,73.8,30.27,WSW,247,0.0,-999.0,66,0.00,Sunny,,0.00,Open2300\PHP-WU,2013-06-23 17:57:00,
2013-06-23 14:03:00,86.7,72.6,30.27,WSW,247,0.0,-999.0,63,0.00,Sunny,,0.00,Open2300\PHP-WU,2013-06-23 18:03:00,
2013-06-23 14:09:00,86.2,72.1,30.27,SW,225,0.0,-999.0,63,0.00,Sunny,,0.00,Open2300\PHP-WU,2013-06-23 18:09:00,
2013-06-23 14:15:00,85.8,72.2,30.27,WSW,247,0.0,-999.0,64,0.00,Sunny,,0.00,Open2300\PHP-WU,2013-06-23 18:15:00,
2013-06-23 14:21:00,87.1,73.0,30.26,WSW,247,0.0,-999.0,63,0.00,Sunny,,0.00,Open2300\PHP-WU,2013-06-23 18:21:00,
2013-06-23 14:27:00,87.6,73.0,30.25,SW,225,0.0,-999.0,62,0.00,Sunny,,0.00,Open2300\PHP-WU,2013-06-23 18:27:00,
2013-06-23 14:33:00,87.1,72.1,30.26,WSW,247,0.0,-999.0,61,0.00,Sunny,,0.00,Open2300\PHP-WU,2013-06-23 18:33:00,
2013-06-23 14:39:00,87.1,72.5,30.26,WSW,247,0.0,-999.0,62,0.00,Sunny,,0.00,Open2300\PHP-WU,2013-06-23 18:39:00,
2013-06-23 14:45:00,86.4,72.3,30.25,SSE,157,0.0,-999.0,63,0.00,Sunny,,0.00,Open2300\PHP-WU,2013-06-23 18:45:00,
2013-06-23 14:51:00,86.2,72.6,30.25,WSW,247,0.0,-999.0,64,0.00,Sunny,,0.00,Open2300\PHP-WU,2013-06-23 18:51:00,
2013-06-23 14:57:00,86.5,72.4,30.25,WSW,247,0.0,-999.0,63,0.00,Sunny,,0.00,Open2300\PHP-WU,2013-06-23 18:57:00,
2013-06-23 15:03:00,86.5,72.4,30.25,South,180,0.0,-999.0,63,0.00,Sunny,,0.00,Open2300\PHP-WU,2013-06-23 19:03:00,
2013-06-23 15:09:00,86.4,72.7,30.24,SE,135,0.0,-999.0,64,0.00,Sunny,,0.00,Open2300\PHP-WU,2013-06-23 19:09:00,
2013-06-23 15:15:00,85.6,72.5,30.24,WSW,247,0.0,-999.0,65,0.00,Sunny,,0.00,Open2300\PHP-WU,2013-06-23 19:15:00,
2013-06-23 15:21:00,84.9,72.3,30.24,South,180,0.0,-999.0,66,0.00,Sunny,,0.00,Open2300\PHP-WU,2013-06-23 19:21:00,
2013-06-23 15:27:00,84.0,71.9,30.24,NNW,337,0.0,-999.0,67,0.00,Sunny,,0.00,Open2300\PHP-WU,2013-06-23 19:27:00,
2013-06-23 15:33:00,83.7,71.5,30.24,SW,225,1.3,-999.0,67,0.00,Sunny,,0.00,Open2300\PHP-WU,2013-06-23 19:33:00,
2013-06-23 15:39:00,83.5,71.8,30.24,WSW,247,0.0,-999.0,68,0.00,Sunny,,0.00,Open2300\PHP-WU,2013-06-23 19:39:00,
2013-06-23 15:45:00,83.1,71.4,30.23,South,180,0.0,-999.0,68,0.00,Sunny,,0.00,Open2300\PHP-WU,2013-06-23 19:45:00,
2013-06-23 15:51:00,82.9,71.2,30.22,SSE,157,0.7,-999.0,68,0.00,Sunny,,0.00,Open2300\PHP-WU,2013-06-23 19:51:00,
2013-06-23 15:57:00,84.4,72.7,30.22,WSW,247,0.0,-999.0,68,0.00,Sunny,,0.00,Open2300\PHP-WU,2013-06-23 19:57:00,
2013-06-23 16:03:00,85.6,73.0,30.22,WSW,247,0.0,-999.0,66,0.00,Sunny,,0.00,Open2300\PHP-WU,2013-06-23 20:03:00,
2013-06-23 16:09:00,86.9,72.3,30.22,WSW,247,0.0,-999.0,62,0.00,Sunny,,0.00,Open2300\PHP-WU,2013-06-23 20:09:00,
2013-06-23 16:15:00,87.8,72.8,30.22,WSW,247,0.0,-999.0,61,0.00,Sunny,,0.00,Open2300\PHP-WU,2013-06-23 20:15:00,
2013-06-23 16:21:00,88.5,73.0,30.22,WSW,247,0.0,-999.0,60,0.00,Sunny,,0.00,Open2300\PHP-WU,2013-06-23 20:21:00,
2013-06-23 16:27:00,88.5,72.4,30.22,WSW,247,0.0,-999.0,59,0.00,Sunny,,0.00,Open2300\PHP-WU,2013-06-23 20:27:00,
2013-06-23 16:33:00,87.8,71.8,30.22,East,90,0.0,-999.0,59,0.00,Sunny,,0.00,Open2300\PHP-WU,2013-06-23 20:33:00,
2013-06-23 16:39:00,86.2,70.7,30.22,SE,135,0.0,-999.0,60,0.00,Sunny,,0.00,Open2300\PHP-WU,2013-06-23 20:39:00,
2013-06-23 16:45:00,84.7,69.8,30.22,West,270,0.0,-999.0,61,0.00,Sunny,,0.00,Open2300\PHP-WU,2013-06-23 20:45:00,
2013-06-23 16:51:00,83.5,69.5,30.22,West,270,0.0,-999.0,63,0.00,Sunny,,0.00,Open2300\PHP-WU,2013-06-23 20:51:00,
2013-06-23 16:57:00,82.8,69.7,30.22,WSW,247,0.0,-999.0,65,0.00,Sunny,,0.00,Open2300\PHP-WU,2013-06-23 20:57:00,
2013-06-23 17:03:00,82.4,69.4,30.22,WSW,247,0.0,-999.0,65,0.00,Sunny,,0.00,Open2300\PHP-WU,2013-06-23 21:03:00,
2013-06-23 17:09:00,82.0,69.9,30.22,WSW,247,0.0,-999.0,67,0.00,Sunny,,0.00,Open2300\PHP-WU,2013-06-23 21:09:00,
2013-06-23 17:15:00,81.3,69.7,30.22,WSW,247,0.0,-999.0,68,0.00,Sunny,,0.00,Open2300\PHP-WU,2013-06-23 21:15:00,
2013-06-23 17:21:00,81.3,70.2,30.22,WSW,247,0.0,-999.0,69,0.00,Sunny,,0.00,Open2300\PHP-WU,2013-06-23 21:21:00,
2013-06-23 17:27:00,81.3,70.2,30.22,WSW,247,0.0,-999.0,69,0.00,Sunny,,0.00,Open2300\PHP-WU,2013-06-23 21:27:00,
2013-06-23 17:33:00,82.0,70.8,30.22,WSW,247,0.0,-999.0,69,0.00,Sunny,,0.00,Open2300\PHP-WU,2013-06-23 21:33:00,
2013-06-23 17:39:00,83.7,71.1,30.22,WSW,247,0.0,-999.0,66,0.00,Sunny,,0.00,Open2300\PHP-WU,2013-06-23 21:39:00,
2013-06-23 17:45:00,84.7,71.2,30.22,WSW,247,0.0,-999.0,64,0.00,Sunny,,0.00,Open2300\PHP-WU,2013-06-23 21:45:00,
2013-06-23 17:51:00,84.4,70.9,30.21,South,180,0.0,-999.0,64,0.00,Sunny,,0.00,Open2300\PHP-WU,2013-06-23 21:51:00,
2013-06-23 17:57:00,84.0,70.1,30.22,West,270,0.0,-999.0,63,0.00,Sunny,,0.00,Open2300\PHP-WU,2013-06-23 21:57:00,
2013-06-23 18:03:00,83.3,69.8,30.22,WSW,247,0.0,-999.0,64,0.00,Sunny,,0.00,Open2300\PHP-WU,2013-06-23 22:03:00,
2013-06-23 18:09:00,83.3,69.8,30.22,WSW,247,0.0,-999.0,64,0.00,Sunny,,0.00,Open2300\PHP-WU,2013-06-23 22:09:00,
2013-06-23 18:15:00,83.5,70.0,30.22,SSW,202,0.0,-999.0,64,0.00,Sunny,,0.00,Open2300\PHP-WU,2013-06-23 22:15:00,
2013-06-23 18:21:00,82.9,69.4,30.22,West,270,0.0,-999.0,64,0.00,Sunny,,0.00,Open2300\PHP-WU,2013-06-23 22:21:00,
2013-06-23 18:27:00,82.2,69.2,30.22,ESE,112,0.0,-999.0,65,0.00,Sunny,,0.00,Open2300\PHP-WU,2013-06-23 22:27:00,
2013-06-23 18:33:00,82.2,69.6,30.23,West,270,0.0,-999.0,66,0.00,Sunny,,0.00,Open2300\PHP-WU,2013-06-23 22:33:00,
2013-06-23 18:39:00,81.9,69.8,30.23,West,270,0.0,-999.0,67,0.00,Sunny,,0.00,Open2300\PHP-WU,2013-06-23 22:39:00,
2013-06-23 18:45:00,81.7,70.1,30.22,West,270,0.0,-999.0,68,0.00,Sunny,,0.00,Open2300\PHP-WU,2013-06-23 22:45:00,
2013-06-23 18:51:00,81.7,70.1,30.23,West,270,0.0,-999.0,68,0.00,Sunny,,0.00,Open2300\PHP-WU,2013-06-23 22:51:00,
2013-06-23 18:57:00,81.9,70.2,30.22,South,180,0.0,-999.0,68,0.00,Sunny,,0.00,Open2300\PHP-WU,2013-06-23 22:57:00,
2013-06-23 19:03:00,82.0,70.4,30.22,WNW,292,0.0,-999.0,68,0.00,Sunny,,0.00,Open2300\PHP-WU,2013-06-23 23:03:00,
2013-06-23 19:09:00,82.0,69.9,30.22,NE,45,0.0,-999.0,67,0.00,Sunny,,0.00,Open2300\PHP-WU,2013-06-23 23:09:00,
2013-06-23 19:15:00,81.7,70.1,30.22,ESE,112,0.0,-999.0,68,0.00,Sunny,,0.00,Open2300\PHP-WU,2013-06-23 23:15:00,
2013-06-23 19:21:00,81.5,69.9,30.22,SE,135,0.0,-999.0,68,0.00,Sunny,,0.00,Open2300\PHP-WU,2013-06-23 23:21:00,
2013-06-23 19:27:00,81.1,69.6,30.22,NW,315,0.0,-999.0,68,0.00,Sunny,,0.00,Open2300\PHP-WU,2013-06-23 23:27:00,
2013-06-23 19:34:00,81.0,69.4,30.22,NW,315,0.0,-999.0,68,0.00,Sunny,,0.00,Open2300\PHP-WU,2013-06-23 23:34:00,
2013-06-23 19:40:00,81.0,69.9,30.23,NW,315,0.0,-999.0,69,0.00,Sunny,,0.00,Open2300\PHP-WU,2013-06-23 23:40:00,
2013-06-23 19:46:00,80.8,70.1,30.24,NW,315,0.0,-999.0,70,0.00,Sunny,,0.00,Open2300\PHP-WU,2013-06-23 23:46:00,
2013-06-23 19:52:00,80.4,70.2,30.24,NW,315,0.0,-999.0,71,0.00,Sunny,,0.00,Open2300\PHP-WU,2013-06-23 23:52:00,
2013-06-23 19:58:00,80.2,70.4,30.24,NW,315,0.0,-999.0,72,0.00,Sunny,,0.00,Open2300\PHP-WU,2013-06-23 23:58:00,
2013-06-23 20:04:00,79.9,70.1,30.24,WNW,292,0.0,-999.0,72,0.00,Sunny,,0.00,Open2300\PHP-WU,2013-06-24 00:04:00,
2013-06-23 20:10:00,79.7,69.9,30.23,WNW,292,0.0,-999.0,72,0.00,Sunny,,0.00,Open2300\PHP-WU,2013-06-24 00:10:00,
2013-06-23 20:16:00,79.9,70.1,30.23,South,180,0.0,-999.0,72,0.00,Sunny,,0.00,Open2300\PHP-WU,2013-06-24 00:16:00,
2013-06-23 20:22:00,79.7,69.9,30.23,SSW,202,0.0,-999.0,72,0.00,Sunny,,0.00,Open2300\PHP-WU,2013-06-24 00:22:00,
2013-06-23 20:28:00,79.5,70.1,30.23,WSW,247,0.0,-999.0,73,0.00,Sunny,,0.00,Open2300\PHP-WU,2013-06-24 00:28:00,
2013-06-23 20:34:00,79.2,70.1,30.23,West,270,0.0,-999.0,74,0.00,Sunny,,0.00,Open2300\PHP-WU,2013-06-24 00:34:00,
2013-06-23 20:40:00,79.0,69.9,30.22,West,270,0.0,-999.0,74,0.00,Sunny,,0.00,Open2300\PHP-WU,2013-06-24 00:40:00,
2013-06-23 20:46:00,78.6,69.6,30.23,SE,135,0.0,-999.0,74,0.00,Sunny,,0.00,Open2300\PHP-WU,2013-06-24 00:46:00,
2013-06-23 20:52:00,78.1,69.1,30.24,ENE,67,0.0,-999.0,74,0.00,Sunny,,0.00,Open2300\PHP-WU,2013-06-24 00:52:00,
2013-06-23 20:58:00,77.9,68.9,30.24,WSW,247,0.0,-999.0,74,0.00,Sunny,,0.00,Open2300\PHP-WU,2013-06-24 00:58:00,
2013-06-23 21:04:00,77.5,69.0,30.24,West,270,0.0,-999.0,75,0.00,Sunny,,0.00,Open2300\PHP-WU,2013-06-24 01:04:00,
2013-06-23 21:10:00,77.5,69.0,30.24,WSW,247,0.0,-999.0,75,0.00,Sunny,,0.00,Open2300\PHP-WU,2013-06-24 01:10:00,
2013-06-23 21:16:00,77.2,68.6,30.25,West,270,0.0,-999.0,75,0.00,Sunny,,0.00,Open2300\PHP-WU,2013-06-24 01:16:00,
2013-06-23 21:22:00,76.8,68.6,30.25,West,270,0.0,-999.0,76,0.00,Sunny,,0.00,Open2300\PHP-WU,2013-06-24 01:22:00,
2013-06-23 21:28:00,76.6,68.5,30.24,West,270,0.0,-999.0,76,0.00,Sunny,,0.00,Open2300\PHP-WU,2013-06-24 01:28:00,
2013-06-23 21:34:00,76.3,68.1,30.24,SSW,202,0.0,-999.0,76,0.00,Sunny,,0.00,Open2300\PHP-WU,2013-06-24 01:34:00,
2013-06-23 21:40:00,76.1,68.0,30.24,South,180,0.0,-999.0,76,0.00,Sunny,,0.00,Open2300\PHP-WU,2013-06-24 01:40:00,
2013-06-23 21:46:00,75.9,67.8,30.24,WSW,247,0.0,-999.0,76,0.00,Sunny,,0.00,Open2300\PHP-WU,2013-06-24 01:46:00,
2013-06-23 21:52:00,75.6,67.9,30.25,WSW,247,0.0,-999.0,77,0.00,Sunny,,0.00,Open2300\PHP-WU,2013-06-24 01:52:00,
2013-06-23 21:58:00,75.4,68.1,30.25,WSW,247,0.0,-999.0,78,0.00,Sunny,,0.00,Open2300\PHP-WU,2013-06-24 01:58:00,
2013-06-23 22:04:00,75.0,67.7,30.25,WSW,247,0.0,-999.0,78,0.00,Sunny,,0.00,Open2300\PHP-WU,2013-06-24 02:04:00,
2013-06-23 22:10:00,74.8,68.0,30.25,WSW,247,0.0,-999.0,79,0.00,Sunny,,0.00,Open2300\PHP-WU,2013-06-24 02:10:00,
2013-06-23 22:16:00,74.3,67.8,30.25,WSW,247,0.0,-999.0,80,0.00,Sunny,,0.00,Open2300\PHP-WU,2013-06-24 02:16:00,
2013-06-23 22:22:00,73.9,67.5,30.26,WSW,247,0.0,-999.0,80,0.00,Sunny,,0.00,Open2300\PHP-WU,2013-06-24 02:22:00,
2013-06-23 22:28:00,73.6,67.4,30.26,SE,135,0.0,-999.0,81,0.00,Sunny,,0.00,Open2300\PHP-WU,2013-06-24 02:28:00,
2013-06-23 22:34:00,73.2,67.4,30.26,SSE,157,0.0,-999.0,82,0.00,Sunny,,0.00,Open2300\PHP-WU,2013-06-24 02:34:00,
2013-06-23 22:40:00,73.2,67.4,30.26,SSE,157,0.0,-999.0,82,0.00,Sunny,,0.00,Open2300\PHP-WU,2013-06-24 02:40:00,
2013-06-23 22:46:00,73.0,67.2,30.25,SSE,157,0.0,-999.0,82,0.00,Sunny,,0.00,Open2300\PHP-WU,2013-06-24 02:46:00,
2013-06-23 22:52:00,72.7,67.2,30.25,SSE,157,0.0,-999.0,83,0.00,Sunny,,0.00,Open2300\PHP-WU,2013-06-24 02:52:00,
2013-06-23 22:58:00,72.3,67.2,30.25,SSE,157,0.0,-999.0,84,0.00,Sunny,,0.00,Open2300\PHP-WU,2013-06-24 02:58:00,
2013-06-23 23:04:00,72.3,67.2,30.25,SSE,157,0.0,-999.0,84,0.00,Sunny,,0.00,Open2300\PHP-WU,2013-06-24 03:04:00,
2013-06-23 23:10:00,72.1,67.0,30.25,West,270,0.0,-999.0,84,0.00,Sunny,,0.00,Open2300\PHP-WU,2013-06-24 03:10:00,
2013-06-23 23:16:00,72.3,67.6,30.25,West,270,0.0,-999.0,85,0.00,Sunny,,0.00,Open2300\PHP-WU,2013-06-24 03:16:00,
2013-06-23 23:22:00,72.3,67.6,30.25,West,270,0.0,-999.0,85,0.00,Sunny,,0.00,Open2300\PHP-WU,2013-06-24 03:22:00,
2013-06-23 23:28:00,72.3,67.6,30.25,West,270,0.0,-999.0,85,0.00,Sunny,,0.00,Open2300\PHP-WU,2013-06-24 03:28:00,
2013-06-23 23:34:00,72.3,67.6,30.26,WSW,247,0.0,-999.0,85,0.00,Sunny,,0.00,Open2300\PHP-WU,2013-06-24 03:34:00,
2013-06-23 23:39:00,72.3,67.9,30.26,WSW,247,0.0,-999.0,86,0.00,Sunny,,0.00,Open2300\PHP-WU,2013-06-24 03:39:00,
2013-06-23 23:45:00,72.3,67.9,30.27,WSW,247,0.0,-999.0,86,0.00,Sunny,,0.00,Open2300\PHP-WU,2013-06-24 03:45:00,
2013-06-23 23:52:00,72.3,67.9,30.27,WSW,247,0.0,-999.0,86,0.00,Sunny,,0.00,Open2300\PHP-WU,2013-06-24 03:52:00,
2013-06-23 23:58:00,72.3,67.9,30.27,SSE,157,0.0,-999.0,86,0.00,Sunny,,0.00,Open2300\PHP-WU,2013-06-24 03:58:00,